sensor_id;sensor_type;location;lat;lon;timestamp;P1;durP1;ratioP1;P2;durP2;ratioP2
38591;SDS011;24356;48.460;11.450;2023-01-05T00:02:10;1.27;;;1.00;;
38591;SDS011;24356;48.460;11.450;2023-01-05T00:04:35;1.33;;;0.80;;
38591;SDS011;24356;48.460;11.450;2023-01-05T00:07:01;1.55;;;1.00;;
38591;SDS011;24356;48.460;11.450;2023-01-05T00:09:27;1.55;;;0.90;;
38591;SDS011;24356;48.460;11.450;2023-01-05T00:11:53;0.88;;;0.88;;
38591;SDS011;24356;48.460;11.450;2023-01-05T00:14:37;1.77;;;0.90;;
38591;SDS011;24356;48.460;11.450;2023-01-05T00:17:21;1.30;;;1.20;;
38591;SDS011;24356;48.460;11.450;2023-01-05T00:20:10;0.77;;;0.75;;
38591;SDS011;24356;48.460;11.450;2023-01-05T00:22:57;1.90;;;1.00;;
38591;SDS011;24356;48.460;11.450;2023-01-05T00:25:24;1.38;;;0.73;;
38591;SDS011;24356;48.460;11.450;2023-01-05T00:27:52;1.30;;;1.00;;
38591;SDS011;24356;48.460;11.450;2023-01-05T00:30:20;0.80;;;0.70;;
38591;SDS011;24356;48.460;11.450;2023-01-05T00:32:47;1.70;;;1.00;;
38591;SDS011;24356;48.460;11.450;2023-01-05T00:35:14;1.42;;;0.90;;
38591;SDS011;24356;48.460;11.450;2023-01-05T00:37:40;0.73;;;0.70;;
38591;SDS011;24356;48.460;11.450;2023-01-05T00:40:07;2.03;;;0.77;;
38591;SDS011;24356;48.460;11.450;2023-01-05T00:42:35;1.85;;;0.80;;
38591;SDS011;24356;48.460;11.450;2023-01-05T00:45:00;1.05;;;0.80;;
38591;SDS011;24356;48.460;11.450;2023-01-05T00:47:26;1.60;;;0.82;;
38591;SDS011;24356;48.460;11.450;2023-01-05T00:49:52;1.02;;;0.80;;
38591;SDS011;24356;48.460;11.450;2023-01-05T00:52:17;0.80;;;0.80;;
38591;SDS011;24356;48.460;11.450;2023-01-05T00:54:43;1.75;;;1.00;;
38591;SDS011;24356;48.460;11.450;2023-01-05T00:57:09;0.90;;;0.90;;
38591;SDS011;24356;48.460;11.450;2023-01-05T00:59:37;1.15;;;1.00;;
38591;SDS011;24356;48.460;11.450;2023-01-05T01:02:03;1.38;;;1.00;;
38591;SDS011;24356;48.460;11.450;2023-01-05T01:04:30;0.90;;;0.80;;
38591;SDS011;24356;48.460;11.450;2023-01-05T01:06:56;1.02;;;0.77;;
38591;SDS011;24356;48.460;11.450;2023-01-05T01:09:21;0.98;;;0.88;;
38591;SDS011;24356;48.460;11.450;2023-01-05T01:11:47;1.10;;;1.00;;
38591;SDS011;24356;48.460;11.450;2023-01-05T01:14:13;0.85;;;0.80;;
38591;SDS011;24356;48.460;11.450;2023-01-05T01:16:40;0.88;;;0.80;;
38591;SDS011;24356;48.460;11.450;2023-01-05T01:19:06;3.70;;;1.00;;
38591;SDS011;24356;48.460;11.450;2023-01-05T01:21:43;1.60;;;1.02;;
38591;SDS011;24356;48.460;11.450;2023-01-05T01:24:14;0.85;;;0.82;;
38591;SDS011;24356;48.460;11.450;2023-01-05T01:26:41;1.20;;;0.90;;
38591;SDS011;24356;48.460;11.450;2023-01-05T01:29:06;1.02;;;0.93;;
38591;SDS011;24356;48.460;11.450;2023-01-05T01:31:32;1.27;;;0.98;;
38591;SDS011;24356;48.460;11.450;2023-01-05T01:33:59;0.85;;;0.77;;
38591;SDS011;24356;48.460;11.450;2023-01-05T01:36:25;1.00;;;0.88;;
38591;SDS011;24356;48.460;11.450;2023-01-05T01:38:51;2.78;;;1.02;;
38591;SDS011;24356;48.460;11.450;2023-01-05T01:41:16;1.05;;;0.95;;
38591;SDS011;24356;48.460;11.450;2023-01-05T01:46:17;0.98;;;0.82;;
38591;SDS011;24356;48.460;11.450;2023-01-05T01:49:04;1.00;;;0.77;;
38591;SDS011;24356;48.460;11.450;2023-01-05T01:51:39;2.78;;;0.95;;
38591;SDS011;24356;48.460;11.450;2023-01-05T01:54:09;0.93;;;0.82;;
38591;SDS011;24356;48.460;11.450;2023-01-05T01:56:39;2.17;;;1.00;;
38591;SDS011;24356;48.460;11.450;2023-01-05T01:59:09;1.52;;;0.95;;
38591;SDS011;24356;48.460;11.450;2023-01-05T02:01:35;1.30;;;0.90;;
38591;SDS011;24356;48.460;11.450;2023-01-05T02:04:01;3.95;;;1.20;;
38591;SDS011;24356;48.460;11.450;2023-01-05T02:06:29;1.10;;;1.00;;
38591;SDS011;24356;48.460;11.450;2023-01-05T02:08:55;1.17;;;1.08;;
38591;SDS011;24356;48.460;11.450;2023-01-05T02:11:23;1.20;;;0.93;;
38591;SDS011;24356;48.460;11.450;2023-01-05T02:41:36;1.30;;;1.00;;
38591;SDS011;24356;48.460;11.450;2023-01-05T02:44:06;1.23;;;1.00;;
38591;SDS011;24356;48.460;11.450;2023-01-05T02:46:32;1.52;;;1.00;;
38591;SDS011;24356;48.460;11.450;2023-01-05T02:48:58;0.82;;;0.70;;
38591;SDS011;24356;48.460;11.450;2023-01-05T02:51:33;1.42;;;0.88;;
38591;SDS011;24356;48.460;11.450;2023-01-05T02:54:04;1.42;;;1.02;;
38591;SDS011;24356;48.460;11.450;2023-01-05T02:56:36;1.55;;;0.80;;
38591;SDS011;24356;48.460;11.450;2023-01-05T03:01:38;0.80;;;0.80;;
38591;SDS011;24356;48.460;11.450;2023-01-05T03:04:13;1.02;;;0.88;;
38591;SDS011;24356;48.460;11.450;2023-01-05T03:06:51;0.90;;;0.80;;
38591;SDS011;24356;48.460;11.450;2023-01-05T03:09:24;1.33;;;0.93;;
38591;SDS011;24356;48.460;11.450;2023-01-05T03:14:48;1.35;;;1.02;;
38591;SDS011;24356;48.460;11.450;2023-01-05T03:17:24;1.38;;;0.95;;
38591;SDS011;24356;48.460;11.450;2023-01-05T03:19:56;0.75;;;0.70;;
38591;SDS011;24356;48.460;11.450;2023-01-05T03:22:26;0.77;;;0.77;;
38591;SDS011;24356;48.460;11.450;2023-01-05T03:25:14;0.60;;;0.60;;
38591;SDS011;24356;48.460;11.450;2023-01-05T03:28:01;1.73;;;0.80;;
38591;SDS011;24356;48.460;11.450;2023-01-05T03:37:14;1.63;;;0.80;;
38591;SDS011;24356;48.460;11.450;2023-01-05T03:39:45;1.05;;;0.70;;
38591;SDS011;24356;48.460;11.450;2023-01-05T03:42:11;0.77;;;0.77;;
38591;SDS011;24356;48.460;11.450;2023-01-05T03:44:39;2.72;;;0.95;;
38591;SDS011;24356;48.460;11.450;2023-01-05T03:47:08;0.73;;;0.70;;
38591;SDS011;24356;48.460;11.450;2023-01-05T03:49:34;1.00;;;0.80;;
38591;SDS011;24356;48.460;11.450;2023-01-05T03:52:00;0.80;;;0.75;;
38591;SDS011;24356;48.460;11.450;2023-01-05T03:54:26;0.93;;;0.80;;
38591;SDS011;24356;48.460;11.450;2023-01-05T03:56:51;1.98;;;0.70;;
38591;SDS011;24356;48.460;11.450;2023-01-05T03:59:17;0.75;;;0.63;;
38591;SDS011;24356;48.460;11.450;2023-01-05T04:01:43;1.58;;;1.20;;
38591;SDS011;24356;48.460;11.450;2023-01-05T04:04:09;1.80;;;1.00;;
38591;SDS011;24356;48.460;11.450;2023-01-05T04:06:34;0.63;;;0.63;;
38591;SDS011;24356;48.460;11.450;2023-01-05T04:09:00;0.65;;;0.55;;
38591;SDS011;24356;48.460;11.450;2023-01-05T04:11:26;1.27;;;0.73;;
38591;SDS011;24356;48.460;11.450;2023-01-05T04:13:51;0.80;;;0.70;;
38591;SDS011;24356;48.460;11.450;2023-01-05T04:16:17;2.28;;;0.80;;
38591;SDS011;24356;48.460;11.450;2023-01-05T04:18:43;0.77;;;0.50;;
38591;SDS011;24356;48.460;11.450;2023-01-05T04:21:08;0.90;;;0.70;;
38591;SDS011;24356;48.460;11.450;2023-01-05T04:23:34;0.50;;;0.50;;
38591;SDS011;24356;48.460;11.450;2023-01-05T04:26:00;0.90;;;0.30;;
38591;SDS011;24356;48.460;11.450;2023-01-05T04:28:26;0.50;;;0.50;;
38591;SDS011;24356;48.460;11.450;2023-01-05T04:30:52;0.60;;;0.47;;
38591;SDS011;24356;48.460;11.450;2023-01-05T04:33:19;1.35;;;0.50;;
38591;SDS011;24356;48.460;11.450;2023-01-05T04:35:46;0.90;;;0.50;;
38591;SDS011;24356;48.460;11.450;2023-01-05T04:38:12;0.43;;;0.40;;
38591;SDS011;24356;48.460;11.450;2023-01-05T04:40:38;0.60;;;0.55;;
38591;SDS011;24356;48.460;11.450;2023-01-05T04:43:04;0.40;;;0.40;;
38591;SDS011;24356;48.460;11.450;2023-01-05T04:45:31;0.30;;;0.30;;
38591;SDS011;24356;48.460;11.450;2023-01-05T04:47:57;0.82;;;0.40;;
38591;SDS011;24356;48.460;11.450;2023-01-05T04:50:22;0.50;;;0.30;;
38591;SDS011;24356;48.460;11.450;2023-01-05T04:52:48;0.60;;;0.40;;
38591;SDS011;24356;48.460;11.450;2023-01-05T04:55:14;0.52;;;0.40;;
38591;SDS011;24356;48.460;11.450;2023-01-05T04:57:40;0.80;;;0.40;;
38591;SDS011;24356;48.460;11.450;2023-01-05T05:00:06;0.38;;;0.38;;
38591;SDS011;24356;48.460;11.450;2023-01-05T05:02:32;0.40;;;0.40;;
38591;SDS011;24356;48.460;11.450;2023-01-05T05:04:58;1.27;;;0.57;;
38591;SDS011;24356;48.460;11.450;2023-01-05T05:07:23;0.55;;;0.52;;
38591;SDS011;24356;48.460;11.450;2023-01-05T05:09:49;0.73;;;0.40;;
38591;SDS011;24356;48.460;11.450;2023-01-05T05:12:15;0.43;;;0.40;;
38591;SDS011;24356;48.460;11.450;2023-01-05T05:14:44;1.65;;;0.47;;
38591;SDS011;24356;48.460;11.450;2023-01-05T05:17:11;0.63;;;0.63;;
38591;SDS011;24356;48.460;11.450;2023-01-05T05:19:36;0.30;;;0.30;;
38591;SDS011;24356;48.460;11.450;2023-01-05T05:22:02;0.52;;;0.40;;
38591;SDS011;24356;48.460;11.450;2023-01-05T05:24:27;0.40;;;0.40;;
38591;SDS011;24356;48.460;11.450;2023-01-05T05:26:53;1.80;;;0.60;;
38591;SDS011;24356;48.460;11.450;2023-01-05T05:29:19;0.88;;;0.60;;
38591;SDS011;24356;48.460;11.450;2023-01-05T05:31:44;0.30;;;0.30;;
38591;SDS011;24356;48.460;11.450;2023-01-05T05:34:10;0.95;;;0.38;;
38591;SDS011;24356;48.460;11.450;2023-01-05T05:36:35;0.95;;;0.85;;
38591;SDS011;24356;48.460;11.450;2023-01-05T05:39:02;0.60;;;0.30;;
38591;SDS011;24356;48.460;11.450;2023-01-05T05:41:27;1.88;;;0.50;;
38591;SDS011;24356;48.460;11.450;2023-01-05T05:43:53;0.40;;;0.40;;
38591;SDS011;24356;48.460;11.450;2023-01-05T05:46:18;0.73;;;0.50;;
38591;SDS011;24356;48.460;11.450;2023-01-05T05:48:44;0.30;;;0.30;;
38591;SDS011;24356;48.460;11.450;2023-01-05T05:51:09;0.40;;;0.40;;
38591;SDS011;24356;48.460;11.450;2023-01-05T05:53:35;0.40;;;0.40;;
38591;SDS011;24356;48.460;11.450;2023-01-05T05:56:00;1.10;;;0.50;;
38591;SDS011;24356;48.460;11.450;2023-01-05T05:58:26;0.50;;;0.30;;
38591;SDS011;24356;48.460;11.450;2023-01-05T06:00:55;0.20;;;0.20;;
38591;SDS011;24356;48.460;11.450;2023-01-05T06:03:22;1.73;;;0.40;;
38591;SDS011;24356;48.460;11.450;2023-01-05T06:05:47;0.30;;;0.30;;
38591;SDS011;24356;48.460;11.450;2023-01-05T06:08:13;2.25;;;0.50;;
38591;SDS011;24356;48.460;11.450;2023-01-05T06:10:38;0.63;;;0.50;;
38591;SDS011;24356;48.460;11.450;2023-01-05T06:13:04;0.47;;;0.43;;
38591;SDS011;24356;48.460;11.450;2023-01-05T06:15:30;0.30;;;0.30;;
38591;SDS011;24356;48.460;11.450;2023-01-05T06:17:55;0.32;;;0.30;;
38591;SDS011;24356;48.460;11.450;2023-01-05T06:20:21;0.47;;;0.32;;
38591;SDS011;24356;48.460;11.450;2023-01-05T06:22:46;0.45;;;0.45;;
38591;SDS011;24356;48.460;11.450;2023-01-05T06:25:12;0.40;;;0.40;;
38591;SDS011;24356;48.460;11.450;2023-01-05T06:27:37;1.10;;;0.43;;
38591;SDS011;24356;48.460;11.450;2023-01-05T06:30:03;0.57;;;0.50;;
38591;SDS011;24356;48.460;11.450;2023-01-05T06:32:29;1.38;;;0.40;;
38591;SDS011;24356;48.460;11.450;2023-01-05T06:34:54;0.38;;;0.38;;
38591;SDS011;24356;48.460;11.450;2023-01-05T06:37:20;1.00;;;0.50;;
38591;SDS011;24356;48.460;11.450;2023-01-05T06:39:46;0.40;;;0.40;;
38591;SDS011;24356;48.460;11.450;2023-01-05T06:42:11;0.28;;;0.22;;
38591;SDS011;24356;48.460;11.450;2023-01-05T06:44:37;0.47;;;0.47;;
38591;SDS011;24356;48.460;11.450;2023-01-05T06:47:02;2.50;;;0.38;;
38591;SDS011;24356;48.460;11.450;2023-01-05T06:49:28;2.83;;;0.73;;
38591;SDS011;24356;48.460;11.450;2023-01-05T06:51:53;2.40;;;0.47;;
38591;SDS011;24356;48.460;11.450;2023-01-05T06:54:19;0.50;;;0.50;;
38591;SDS011;24356;48.460;11.450;2023-01-05T06:56:45;0.60;;;0.57;;
38591;SDS011;24356;48.460;11.450;2023-01-05T06:59:10;0.40;;;0.40;;
38591;SDS011;24356;48.460;11.450;2023-01-05T07:01:36;3.13;;;0.82;;
38591;SDS011;24356;48.460;11.450;2023-01-05T07:04:02;0.55;;;0.55;;
38591;SDS011;24356;48.460;11.450;2023-01-05T07:06:28;0.75;;;0.45;;
38591;SDS011;24356;48.460;11.450;2023-01-05T07:08:54;0.88;;;0.60;;
38591;SDS011;24356;48.460;11.450;2023-01-05T07:11:19;0.60;;;0.60;;
38591;SDS011;24356;48.460;11.450;2023-01-05T07:13:48;0.77;;;0.70;;
38591;SDS011;24356;48.460;11.450;2023-01-05T07:16:15;0.70;;;0.70;;
38591;SDS011;24356;48.460;11.450;2023-01-05T07:18:41;3.80;;;0.75;;
38591;SDS011;24356;48.460;11.450;2023-01-05T07:21:06;0.52;;;0.52;;
38591;SDS011;24356;48.460;11.450;2023-01-05T07:23:32;0.55;;;0.55;;
38591;SDS011;24356;48.460;11.450;2023-01-05T07:26:01;1.10;;;0.90;;
38591;SDS011;24356;48.460;11.450;2023-01-05T07:28:28;0.98;;;0.50;;
38591;SDS011;24356;48.460;11.450;2023-01-05T07:30:53;1.00;;;0.80;;
38591;SDS011;24356;48.460;11.450;2023-01-05T07:33:19;1.77;;;1.40;;
38591;SDS011;24356;48.460;11.450;2023-01-05T07:35:45;0.85;;;0.85;;
38591;SDS011;24356;48.460;11.450;2023-01-05T07:38:11;1.75;;;0.82;;
38591;SDS011;24356;48.460;11.450;2023-01-05T07:40:36;1.17;;;0.52;;
38591;SDS011;24356;48.460;11.450;2023-01-05T07:43:02;0.80;;;0.70;;
38591;SDS011;24356;48.460;11.450;2023-01-05T07:45:28;1.45;;;1.10;;
38591;SDS011;24356;48.460;11.450;2023-01-05T07:47:54;3.85;;;1.50;;
38591;SDS011;24356;48.460;11.450;2023-01-05T07:50:19;1.83;;;0.82;;
38591;SDS011;24356;48.460;11.450;2023-01-05T07:52:45;0.90;;;0.73;;
38591;SDS011;24356;48.460;11.450;2023-01-05T07:55:11;1.10;;;0.90;;
38591;SDS011;24356;48.460;11.450;2023-01-05T07:57:36;1.92;;;0.85;;
38591;SDS011;24356;48.460;11.450;2023-01-05T08:00:03;1.10;;;1.00;;
38591;SDS011;24356;48.460;11.450;2023-01-05T08:02:29;1.60;;;1.27;;
38591;SDS011;24356;48.460;11.450;2023-01-05T08:04:54;1.95;;;0.75;;
38591;SDS011;24356;48.460;11.450;2023-01-05T08:07:20;1.10;;;0.80;;
38591;SDS011;24356;48.460;11.450;2023-01-05T08:09:46;1.35;;;1.05;;
38591;SDS011;24356;48.460;11.450;2023-01-05T08:14:55;1.38;;;0.80;;
38591;SDS011;24356;48.460;11.450;2023-01-05T08:17:21;0.88;;;0.82;;
38591;SDS011;24356;48.460;11.450;2023-01-05T08:19:47;1.20;;;0.80;;
38591;SDS011;24356;48.460;11.450;2023-01-05T08:22:12;0.75;;;0.70;;
38591;SDS011;24356;48.460;11.450;2023-01-05T08:24:38;3.28;;;0.90;;
38591;SDS011;24356;48.460;11.450;2023-01-05T08:27:04;1.30;;;1.20;;
38591;SDS011;24356;48.460;11.450;2023-01-05T08:29:29;2.58;;;0.68;;
38591;SDS011;24356;48.460;11.450;2023-01-05T08:31:55;1.00;;;0.90;;
38591;SDS011;24356;48.460;11.450;2023-01-05T08:34:21;2.35;;;0.70;;
38591;SDS011;24356;48.460;11.450;2023-01-05T08:36:46;0.55;;;0.55;;
38591;SDS011;24356;48.460;11.450;2023-01-05T08:39:12;0.95;;;0.70;;
38591;SDS011;24356;48.460;11.450;2023-01-05T08:41:39;1.33;;;0.60;;
38591;SDS011;24356;48.460;11.450;2023-01-05T08:44:06;0.80;;;0.52;;
38591;SDS011;24356;48.460;11.450;2023-01-05T08:46:35;0.40;;;0.40;;
38591;SDS011;24356;48.460;11.450;2023-01-05T08:49:02;1.45;;;0.60;;
38591;SDS011;24356;48.460;11.450;2023-01-05T08:51:30;0.57;;;0.50;;
38591;SDS011;24356;48.460;11.450;2023-01-05T08:53:56;1.05;;;0.80;;
38591;SDS011;24356;48.460;11.450;2023-01-05T08:56:22;1.27;;;1.10;;
38591;SDS011;24356;48.460;11.450;2023-01-05T08:58:51;2.60;;;1.17;;
38591;SDS011;24356;48.460;11.450;2023-01-05T09:01:19;4.93;;;1.83;;
38591;SDS011;24356;48.460;11.450;2023-01-05T09:03:48;3.42;;;1.60;;
38591;SDS011;24356;48.460;11.450;2023-01-05T09:06:14;2.67;;;1.50;;
38591;SDS011;24356;48.460;11.450;2023-01-05T09:08:40;3.67;;;1.60;;
38591;SDS011;24356;48.460;11.450;2023-01-05T09:11:07;2.53;;;1.27;;
38591;SDS011;24356;48.460;11.450;2023-01-05T09:13:39;1.85;;;1.08;;
38591;SDS011;24356;48.460;11.450;2023-01-05T09:18:32;2.08;;;1.15;;
38591;SDS011;24356;48.460;11.450;2023-01-05T09:20:58;2.65;;;1.25;;
38591;SDS011;24356;48.460;11.450;2023-01-05T09:23:24;2.40;;;1.27;;
38591;SDS011;24356;48.460;11.450;2023-01-05T09:25:49;2.80;;;1.15;;
38591;SDS011;24356;48.460;11.450;2023-01-05T09:28:15;1.65;;;1.10;;
38591;SDS011;24356;48.460;11.450;2023-01-05T09:30:40;2.38;;;1.05;;
38591;SDS011;24356;48.460;11.450;2023-01-05T09:33:06;2.85;;;1.63;;
38591;SDS011;24356;48.460;11.450;2023-01-05T09:35:32;3.25;;;1.63;;
38591;SDS011;24356;48.460;11.450;2023-01-05T09:37:57;2.90;;;1.42;;
38591;SDS011;24356;48.460;11.450;2023-01-05T09:40:23;4.50;;;1.20;;
38591;SDS011;24356;48.460;11.450;2023-01-05T09:42:49;3.17;;;1.40;;
38591;SDS011;24356;48.460;11.450;2023-01-05T09:45:19;4.65;;;1.65;;
38591;SDS011;24356;48.460;11.450;2023-01-05T09:47:50;1.77;;;1.30;;
38591;SDS011;24356;48.460;11.450;2023-01-05T09:50:20;4.85;;;1.40;;
38591;SDS011;24356;48.460;11.450;2023-01-05T09:52:48;3.15;;;1.40;;
38591;SDS011;24356;48.460;11.450;2023-01-05T09:55:18;3.00;;;1.40;;
38591;SDS011;24356;48.460;11.450;2023-01-05T09:58:05;7.35;;;2.05;;
38591;SDS011;24356;48.460;11.450;2023-01-05T10:00:39;6.78;;;1.70;;
38591;SDS011;24356;48.460;11.450;2023-01-05T10:03:08;4.80;;;2.17;;
38591;SDS011;24356;48.460;11.450;2023-01-05T10:05:38;4.28;;;1.77;;
38591;SDS011;24356;48.460;11.450;2023-01-05T10:08:09;6.20;;;2.00;;
38591;SDS011;24356;48.460;11.450;2023-01-05T10:10:48;9.57;;;3.10;;
38591;SDS011;24356;48.460;11.450;2023-01-05T10:13:38;9.75;;;2.92;;
38591;SDS011;24356;48.460;11.450;2023-01-05T10:16:07;6.35;;;2.38;;
38591;SDS011;24356;48.460;11.450;2023-01-05T10:18:40;6.72;;;1.70;;
38591;SDS011;24356;48.460;11.450;2023-01-05T10:26:58;5.53;;;1.70;;
38591;SDS011;24356;48.460;11.450;2023-01-05T10:29:51;5.63;;;1.80;;
38591;SDS011;24356;48.460;11.450;2023-01-05T10:41:09;3.35;;;1.40;;
38591;SDS011;24356;48.460;11.450;2023-01-05T10:43:49;3.75;;;1.50;;
38591;SDS011;24356;48.460;11.450;2023-01-05T10:46:38;4.88;;;1.48;;
38591;SDS011;24356;48.460;11.450;2023-01-05T10:49:11;5.32;;;1.60;;
38591;SDS011;24356;48.460;11.450;2023-01-05T10:51:44;4.10;;;1.20;;
38591;SDS011;24356;48.460;11.450;2023-01-05T10:54:13;3.67;;;1.30;;
38591;SDS011;24356;48.460;11.450;2023-01-05T11:02:24;3.95;;;1.60;;
38591;SDS011;24356;48.460;11.450;2023-01-05T11:04:52;5.82;;;1.70;;
38591;SDS011;24356;48.460;11.450;2023-01-05T11:07:27;5.00;;;1.70;;
38591;SDS011;24356;48.460;11.450;2023-01-05T11:09:52;5.55;;;1.73;;
38591;SDS011;24356;48.460;11.450;2023-01-05T11:12:20;3.50;;;1.52;;
38591;SDS011;24356;48.460;11.450;2023-01-05T11:14:49;5.80;;;1.70;;
38591;SDS011;24356;48.460;11.450;2023-01-05T11:17:20;2.42;;;1.15;;
38591;SDS011;24356;48.460;11.450;2023-01-05T11:19:49;3.22;;;1.50;;
38591;SDS011;24356;48.460;11.450;2023-01-05T11:22:30;4.82;;;0.90;;
38591;SDS011;24356;48.460;11.450;2023-01-05T11:27:39;6.35;;;2.10;;
38591;SDS011;24356;48.460;11.450;2023-01-05T11:32:42;6.25;;;2.50;;
38591;SDS011;24356;48.460;11.450;2023-01-05T11:35:18;6.75;;;1.90;;
38591;SDS011;24356;48.460;11.450;2023-01-05T11:37:48;4.40;;;2.10;;
38591;SDS011;24356;48.460;11.450;2023-01-05T11:40:15;5.65;;;2.05;;
38591;SDS011;24356;48.460;11.450;2023-01-05T11:42:43;4.07;;;1.70;;
38591;SDS011;24356;48.460;11.450;2023-01-05T11:45:19;2.75;;;2.10;;
38591;SDS011;24356;48.460;11.450;2023-01-05T11:47:56;2.92;;;1.60;;
38591;SDS011;24356;48.460;11.450;2023-01-05T11:50:27;6.70;;;1.67;;
38591;SDS011;24356;48.460;11.450;2023-01-05T11:52:57;4.43;;;2.45;;
38591;SDS011;24356;48.460;11.450;2023-01-05T12:11:43;3.65;;;1.40;;
38591;SDS011;24356;48.460;11.450;2023-01-05T12:14:30;2.53;;;1.55;;
38591;SDS011;24356;48.460;11.450;2023-01-05T12:17:26;3.25;;;1.50;;
38591;SDS011;24356;48.460;11.450;2023-01-05T12:31:06;2.72;;;1.40;;
38591;SDS011;24356;48.460;11.450;2023-01-05T12:37:10;6.07;;;1.80;;
38591;SDS011;24356;48.460;11.450;2023-01-05T12:42:35;4.35;;;1.50;;
38591;SDS011;24356;48.460;11.450;2023-01-05T12:50:34;5.85;;;1.63;;
38591;SDS011;24356;48.460;11.450;2023-01-05T12:55:57;8.05;;;2.30;;
38591;SDS011;24356;48.460;11.450;2023-01-05T12:58:37;13.38;;;3.05;;
38591;SDS011;24356;48.460;11.450;2023-01-05T13:01:12;7.25;;;2.95;;
38591;SDS011;24356;48.460;11.450;2023-01-05T13:03:46;8.45;;;2.00;;
38591;SDS011;24356;48.460;11.450;2023-01-05T13:06:19;10.48;;;2.30;;
38591;SDS011;24356;48.460;11.450;2023-01-05T13:08:52;6.97;;;1.75;;
38591;SDS011;24356;48.460;11.450;2023-01-05T13:11:26;10.35;;;1.90;;
38591;SDS011;24356;48.460;11.450;2023-01-05T13:17:02;9.15;;;1.67;;
38591;SDS011;24356;48.460;11.450;2023-01-05T13:19:47;10.80;;;1.63;;
38591;SDS011;24356;48.460;11.450;2023-01-05T13:22:21;7.63;;;1.42;;
38591;SDS011;24356;48.460;11.450;2023-01-05T13:27:35;7.15;;;1.88;;
38591;SDS011;24356;48.460;11.450;2023-01-05T13:30:01;10.98;;;1.95;;
38591;SDS011;24356;48.460;11.450;2023-01-05T13:32:52;8.23;;;1.70;;
38591;SDS011;24356;48.460;11.450;2023-01-05T13:35:32;12.07;;;2.17;;
38591;SDS011;24356;48.460;11.450;2023-01-05T13:55:12;9.10;;;1.98;;
38591;SDS011;24356;48.460;11.450;2023-01-05T13:57:41;10.10;;;1.85;;
38591;SDS011;24356;48.460;11.450;2023-01-05T14:00:19;13.32;;;2.10;;
38591;SDS011;24356;48.460;11.450;2023-01-05T14:02:51;11.10;;;2.10;;
38591;SDS011;24356;48.460;11.450;2023-01-05T14:05:40;15.18;;;2.00;;
38591;SDS011;24356;48.460;11.450;2023-01-05T14:08:16;10.90;;;2.08;;
38591;SDS011;24356;48.460;11.450;2023-01-05T14:11:34;12.50;;;2.08;;
38591;SDS011;24356;48.460;11.450;2023-01-05T14:19:10;12.95;;;1.73;;
38591;SDS011;24356;48.460;11.450;2023-01-05T14:24:34;8.70;;;2.13;;
38591;SDS011;24356;48.460;11.450;2023-01-05T14:27:22;10.43;;;1.73;;
38591;SDS011;24356;48.460;11.450;2023-01-05T14:37:56;12.23;;;2.10;;
38591;SDS011;24356;48.460;11.450;2023-01-05T14:43:07;6.72;;;1.77;;
38591;SDS011;24356;48.460;11.450;2023-01-05T14:48:41;13.30;;;2.00;;
38591;SDS011;24356;48.460;11.450;2023-01-05T14:51:21;12.80;;;1.92;;
38591;SDS011;24356;48.460;11.450;2023-01-05T14:53:51;11.43;;;1.90;;
38591;SDS011;24356;48.460;11.450;2023-01-05T14:56:20;8.27;;;1.65;;
38591;SDS011;24356;48.460;11.450;2023-01-05T14:58:53;13.25;;;1.85;;
38591;SDS011;24356;48.460;11.450;2023-01-05T15:01:29;11.90;;;1.48;;
38591;SDS011;24356;48.460;11.450;2023-01-05T15:06:59;14.15;;;2.08;;
38591;SDS011;24356;48.460;11.450;2023-01-05T15:12:33;12.60;;;2.15;;
38591;SDS011;24356;48.460;11.450;2023-01-05T15:20:51;10.57;;;2.25;;
38591;SDS011;24356;48.460;11.450;2023-01-05T15:26:15;14.93;;;4.13;;
38591;SDS011;24356;48.460;11.450;2023-01-05T15:29:17;12.32;;;2.30;;
38591;SDS011;24356;48.460;11.450;2023-01-05T15:35:15;14.18;;;2.53;;
38591;SDS011;24356;48.460;11.450;2023-01-05T15:37:46;11.75;;;2.50;;
38591;SDS011;24356;48.460;11.450;2023-01-05T15:42:48;12.13;;;2.20;;
38591;SDS011;24356;48.460;11.450;2023-01-05T15:45:23;10.95;;;2.72;;
38591;SDS011;24356;48.460;11.450;2023-01-05T15:47:50;9.57;;;2.30;;
38591;SDS011;24356;48.460;11.450;2023-01-05T15:50:24;9.77;;;2.17;;
38591;SDS011;24356;48.460;11.450;2023-01-05T15:52:54;11.70;;;2.28;;
38591;SDS011;24356;48.460;11.450;2023-01-05T15:55:24;12.73;;;2.42;;
38591;SDS011;24356;48.460;11.450;2023-01-05T15:57:57;14.32;;;2.55;;
38591;SDS011;24356;48.460;11.450;2023-01-05T16:00:26;13.77;;;2.35;;
38591;SDS011;24356;48.460;11.450;2023-01-05T16:02:54;13.05;;;2.65;;
38591;SDS011;24356;48.460;11.450;2023-01-05T16:05:20;14.02;;;3.10;;
38591;SDS011;24356;48.460;11.450;2023-01-05T16:08:04;10.05;;;2.20;;
38591;SDS011;24356;48.460;11.450;2023-01-05T16:10:42;11.70;;;3.00;;
38591;SDS011;24356;48.460;11.450;2023-01-05T16:13:13;11.27;;;2.63;;
38591;SDS011;24356;48.460;11.450;2023-01-05T16:15:51;12.52;;;2.30;;
38591;SDS011;24356;48.460;11.450;2023-01-05T16:18:21;11.43;;;2.70;;
38591;SDS011;24356;48.460;11.450;2023-01-05T16:20:50;10.27;;;1.95;;
38591;SDS011;24356;48.460;11.450;2023-01-05T16:23:41;15.05;;;2.50;;
38591;SDS011;24356;48.460;11.450;2023-01-05T16:26:14;11.25;;;2.20;;
38591;SDS011;24356;48.460;11.450;2023-01-05T16:28:42;12.98;;;2.25;;
38591;SDS011;24356;48.460;11.450;2023-01-05T16:31:24;9.38;;;1.92;;
38591;SDS011;24356;48.460;11.450;2023-01-05T16:34:05;7.88;;;2.03;;
38591;SDS011;24356;48.460;11.450;2023-01-05T16:36:40;14.68;;;2.65;;
38591;SDS011;24356;48.460;11.450;2023-01-05T16:39:39;10.95;;;3.30;;
38591;SDS011;24356;48.460;11.450;2023-01-05T16:45:01;15.38;;;2.53;;
38591;SDS011;24356;48.460;11.450;2023-01-05T16:47:37;12.07;;;3.03;;
38591;SDS011;24356;48.460;11.450;2023-01-05T16:53:15;11.82;;;3.05;;
38591;SDS011;24356;48.460;11.450;2023-01-05T16:55:41;16.55;;;3.35;;
38591;SDS011;24356;48.460;11.450;2023-01-05T16:58:32;11.93;;;3.20;;
38591;SDS011;24356;48.460;11.450;2023-01-05T17:00:52;13.82;;;3.88;;
38591;SDS011;24356;48.460;11.450;2023-01-05T17:03:29;13.75;;;3.83;;
38591;SDS011;24356;48.460;11.450;2023-01-05T17:05:56;13.30;;;3.70;;
38591;SDS011;24356;48.460;11.450;2023-01-05T17:08:23;15.90;;;3.90;;
38591;SDS011;24356;48.460;11.450;2023-01-05T17:10:52;11.85;;;2.90;;
38591;SDS011;24356;48.460;11.450;2023-01-05T17:13:23;13.38;;;2.78;;
38591;SDS011;24356;48.460;11.450;2023-01-05T17:15:52;16.48;;;6.55;;
38591;SDS011;24356;48.460;11.450;2023-01-05T17:18:25;30.85;;;10.18;;
38591;SDS011;24356;48.460;11.450;2023-01-05T17:20:52;21.63;;;6.20;;
38591;SDS011;24356;48.460;11.450;2023-01-05T17:25:47;16.25;;;4.88;;
38591;SDS011;24356;48.460;11.450;2023-01-05T17:28:13;16.65;;;7.35;;
38591;SDS011;24356;48.460;11.450;2023-01-05T17:30:39;17.02;;;5.43;;
38591;SDS011;24356;48.460;11.450;2023-01-05T17:33:04;15.55;;;5.00;;
38591;SDS011;24356;48.460;11.450;2023-01-05T17:35:30;13.93;;;5.05;;
38591;SDS011;24356;48.460;11.450;2023-01-05T17:37:56;11.77;;;5.38;;
38591;SDS011;24356;48.460;11.450;2023-01-05T17:40:22;16.17;;;5.28;;
38591;SDS011;24356;48.460;11.450;2023-01-05T17:42:47;17.52;;;5.38;;
38591;SDS011;24356;48.460;11.450;2023-01-05T17:45:15;13.43;;;4.63;;
38591;SDS011;24356;48.460;11.450;2023-01-05T17:47:54;15.15;;;4.32;;
38591;SDS011;24356;48.460;11.450;2023-01-05T17:50:21;20.77;;;5.85;;
38591;SDS011;24356;48.460;11.450;2023-01-05T17:52:50;16.42;;;4.35;;
38591;SDS011;24356;48.460;11.450;2023-01-05T17:55:16;11.88;;;4.07;;